createdAt,value
2019-05-23T00:01:05.468Z,98.84
2019-05-23T00:04:36.843Z,99.53
2019-05-23T00:08:03.352Z,100.00
2019-05-23T00:11:39.897Z,100.00
2019-05-23T00:14:55.742Z,100.00
2019-05-23T00:18:04.921Z,100.00
2019-05-23T00:21:14.055Z,99.51
2019-05-23T00:24:20.771Z,99.44
2019-05-23T00:27:27.482Z,99.95
2019-05-23T00:30:50.310Z,99.32
2019-05-23T00:34:00.383Z,99.94
2019-05-23T00:37:09.250Z,99.70
2019-05-23T00:40:18.516Z,100.00
2019-05-23T00:43:27.789Z,100.00
2019-05-23T00:46:34.366Z,100.00
2019-05-23T00:49:41.702Z,100.00
2019-05-23T00:52:49.719Z,100.00
2019-05-23T00:55:56.488Z,100.00
2019-05-23T00:59:03.919Z,100.00
2019-05-23T01:02:11.153Z,97.68
2019-05-23T01:05:19.637Z,99.44
2019-05-23T01:08:26.951Z,100.00
2019-05-23T01:11:33.450Z,100.00
2019-05-23T01:14:40.642Z,100.00
2019-05-23T01:17:48.019Z,100.00
2019-05-23T01:21:26.122Z,100.00
2019-05-23T01:24:40.816Z,100.00
2019-05-23T01:27:47.338Z,99.93
2019-05-23T01:30:58.398Z,99.59
2019-05-23T01:34:05.567Z,99.28
2019-05-23T01:37:14.076Z,98.67
2019-05-23T01:40:22.465Z,99.14
2019-05-23T01:43:30.805Z,99.23
2019-05-23T01:46:37.766Z,99.33
2019-05-23T01:49:44.917Z,99.28
2019-05-23T01:52:52.922Z,95.99
2019-05-23T01:55:59.928Z,98.71
2019-05-23T01:59:07.328Z,98.55
2019-05-23T02:02:16.364Z,100.00
2019-05-23T02:05:23.789Z,100.00
2019-05-23T02:08:30.562Z,100.00
2019-05-23T02:11:37.526Z,100.00
2019-05-23T02:14:45.941Z,100.00
2019-05-23T02:17:53.804Z,100.00
2019-05-23T02:21:02.713Z,100.00
2019-05-23T02:24:09.449Z,100.00
2019-05-23T02:27:16.338Z,100.00
2019-05-23T02:30:34.611Z,100.00
2019-05-23T02:33:33.706Z,100.00
2019-05-23T02:36:42.315Z,99.57
2019-05-23T02:39:57.816Z,100.00
2019-05-23T02:43:05.723Z,100.00
2019-05-23T02:46:24.090Z,100.00
2019-05-23T02:49:33.884Z,100.00
2019-05-23T02:52:54.351Z,100.00
2019-05-23T02:56:06.105Z,100.00
2019-05-23T02:59:40.879Z,100.00
2019-05-23T03:02:55.031Z,100.00
2019-05-23T03:06:02.981Z,100.00
2019-05-23T03:09:12.180Z,100.00
2019-05-23T03:12:25.245Z,100.00
2019-05-23T03:15:34.052Z,100.00
2019-05-23T03:18:44.898Z,100.00
2019-05-23T03:21:55.213Z,100.00
2019-05-23T03:25:08.252Z,100.00
2019-05-23T03:28:18.720Z,100.00
2019-05-23T03:31:36.059Z,100.00
2019-05-23T03:34:45.635Z,100.00
2019-05-23T03:37:55.347Z,100.00
2019-05-23T03:41:02.307Z,100.00
2019-05-23T03:44:11.570Z,100.00
2019-05-23T03:47:20.395Z,100.00
2019-05-23T03:50:28.772Z,100.00
2019-05-23T03:53:37.105Z,100.00
2019-05-23T03:56:44.611Z,100.00
2019-05-23T03:59:51.852Z,100.00
2019-05-23T04:03:03.055Z,100.00
2019-05-23T04:06:10.102Z,100.00
2019-05-23T04:09:17.440Z,100.00
2019-05-23T04:12:24.184Z,100.00
2019-05-23T04:15:30.815Z,100.00
2019-05-23T04:18:42.352Z,100.00
2019-05-23T04:21:49.045Z,100.00
2019-05-23T04:24:55.972Z,100.00
2019-05-23T04:28:02.867Z,100.00
2019-05-23T04:31:12.997Z,100.00
2019-05-23T04:34:19.471Z,100.00
2019-05-23T04:37:25.928Z,100.00
2019-05-23T04:40:34.465Z,100.00
2019-05-23T04:43:41.294Z,100.00
2019-05-23T04:46:50.285Z,100.00
2019-05-23T04:49:56.739Z,100.00
2019-05-23T04:53:04.491Z,100.00
2019-05-23T04:56:11.587Z,100.00
2019-05-23T04:59:18.005Z,100.00
2019-05-23T05:02:28.412Z,100.00
2019-05-23T05:05:35.401Z,100.00
2019-05-23T05:08:44.667Z,98.17
2019-05-23T05:11:51.173Z,99.75
2019-05-23T05:14:57.721Z,100.00
2019-05-23T05:18:04.435Z,95.25
2019-05-23T05:21:11.230Z,99.78
2019-05-23T05:24:19.390Z,97.32
2019-05-23T05:27:26.673Z,96.74
2019-05-23T05:30:33.676Z,93.32
2019-05-23T05:33:40.545Z,95.17
2019-05-23T05:36:47.064Z,98.23
2019-05-23T05:39:55.185Z,99.03
2019-05-23T05:43:04.000Z,99.09
2019-05-23T05:46:12.843Z,99.50
2019-05-23T05:49:21.368Z,97.14
2019-05-23T05:52:30.768Z,95.78
2019-05-23T05:55:37.375Z,94.11
2019-05-23T05:58:44.446Z,93.49
2019-05-23T06:01:51.095Z,95.33
2019-05-23T06:04:58.445Z,92.98
2019-05-23T06:08:07.134Z,94.28
2019-05-23T06:11:14.226Z,93.63
2019-05-23T06:14:21.023Z,93.23
2019-05-23T06:17:28.388Z,95.42
2019-05-23T06:20:40.500Z,95.04
2019-05-23T06:23:46.865Z,93.96
2019-05-23T06:26:53.789Z,93.88
2019-05-23T06:30:00.494Z,95.47
2019-05-23T06:33:22.756Z,94.10
2019-05-23T06:36:17.584Z,93.22
2019-05-23T06:39:24.348Z,93.29
2019-05-23T06:42:31.056Z,90.93
2019-05-23T06:45:42.022Z,87.61
2019-05-23T06:48:48.617Z,87.39
2019-05-23T06:51:55.155Z,83.52
2019-05-23T06:55:01.715Z,85.73
2019-05-23T06:58:08.506Z,84.57
2019-05-23T07:01:15.187Z,81.37
2019-05-23T07:04:22.614Z,83.15
2019-05-23T07:07:31.217Z,84.15
2019-05-23T07:10:39.545Z,83.91
2019-05-23T07:13:46.209Z,80.57
2019-05-23T07:16:52.633Z,79.68
2019-05-23T07:19:59.388Z,78.56
2019-05-23T07:23:09.307Z,77.04
2019-05-23T07:26:15.968Z,74.19
2019-05-23T07:29:22.553Z,77.22
2019-05-23T07:32:29.965Z,77.51
2019-05-23T07:35:38.457Z,76.37
2019-05-23T07:38:46.710Z,75.63
2019-05-23T07:41:54.466Z,75.88
2019-05-23T07:45:01.867Z,71.59
2019-05-23T07:48:08.921Z,74.42
2019-05-23T07:51:15.586Z,73.68
2019-05-23T07:54:30.879Z,75.67
2019-05-23T07:57:37.605Z,77.31
2019-05-23T08:00:50.590Z,73.69
2019-05-23T08:03:57.581Z,74.98
2019-05-23T08:07:05.064Z,74.27
2019-05-23T08:10:13.655Z,70.63
2019-05-23T08:13:20.099Z,70.58
2019-05-23T08:16:27.542Z,69.53
2019-05-23T08:19:48.609Z,71.88
2019-05-23T08:22:44.833Z,69.34
2019-05-23T08:25:54.863Z,70.88
2019-05-23T08:29:24.725Z,70.65
2019-05-23T08:32:11.543Z,72.25
2019-05-23T08:35:18.320Z,69.62
2019-05-23T08:38:26.418Z,69.17
2019-05-23T08:41:33.627Z,72.45
2019-05-23T08:44:41.907Z,73.39
2019-05-23T08:47:48.726Z,69.26
2019-05-23T08:50:56.183Z,67.85
2019-05-23T08:54:02.699Z,66.77
2019-05-23T08:57:09.351Z,66.86
2019-05-23T09:00:17.239Z,65.27
2019-05-23T09:03:23.844Z,65.92
2019-05-23T09:06:30.845Z,66.95
2019-05-23T09:09:38.006Z,66.64
2019-05-23T09:12:47.866Z,65.81
2019-05-23T09:15:54.900Z,64.14
2019-05-23T09:19:01.431Z,62.51
2019-05-23T09:22:07.943Z,63.14
2019-05-23T09:25:15.614Z,60.65
2019-05-23T09:28:22.399Z,59.90
2019-05-23T09:31:30.672Z,61.20
2019-05-23T09:34:37.247Z,60.82
2019-05-23T09:37:44.411Z,61.13
2019-05-23T09:40:50.921Z,61.21
2019-05-23T09:43:57.320Z,61.57
2019-05-23T09:47:04.228Z,61.71
2019-05-23T09:50:13.926Z,63.22
2019-05-23T09:53:20.696Z,60.48
2019-05-23T09:56:27.316Z,58.06
2019-05-23T09:59:34.001Z,59.99
2019-05-23T10:02:41.997Z,61.02
2019-05-23T10:05:48.597Z,61.09
2019-05-23T10:08:55.030Z,63.59
2019-05-23T10:12:01.941Z,62.85
2019-05-23T10:15:11.537Z,61.05
2019-05-23T10:18:20.047Z,57.64
2019-05-23T10:21:27.772Z,57.39
2019-05-23T10:24:34.336Z,57.60
2019-05-23T10:27:41.600Z,54.96
2019-05-23T10:30:48.011Z,57.60
2019-05-23T10:33:54.542Z,60.03
2019-05-23T10:37:01.366Z,58.67
2019-05-23T10:40:08.792Z,60.54
2019-05-23T10:43:15.416Z,58.13
2019-05-23T10:46:22.557Z,57.46
2019-05-23T10:49:31.332Z,57.72
2019-05-23T10:52:38.211Z,53.07
2019-05-23T10:55:46.465Z,56.96
2019-05-23T10:58:52.933Z,53.17
2019-05-23T11:01:59.517Z,55.96
2019-05-23T11:05:13.078Z,52.88
2019-05-23T11:08:15.858Z,50.13
2019-05-23T11:11:23.206Z,53.84
2019-05-23T11:14:48.139Z,53.28
2019-05-23T11:17:55.622Z,53.33
2019-05-23T11:21:02.262Z,51.36
2019-05-23T11:24:12.595Z,52.62
2019-05-23T11:27:20.806Z,53.26
2019-05-23T11:30:38.073Z,55.10
2019-05-23T11:33:46.221Z,53.90
2019-05-23T11:36:52.667Z,54.04
2019-05-23T11:39:59.192Z,55.67
2019-05-23T11:43:06.742Z,52.51
2019-05-23T11:46:20.943Z,53.27
2019-05-23T11:49:27.646Z,53.53
2019-05-23T11:52:35.545Z,51.44
2019-05-23T11:55:43.647Z,48.54
2019-05-23T11:58:51.730Z,49.18
2019-05-23T12:02:06.807Z,50.23
2019-05-23T12:05:24.551Z,51.46
2019-05-23T12:08:32.519Z,53.51
2019-05-23T12:11:42.658Z,54.86
2019-05-23T12:14:47.340Z,56.10
2019-05-23T12:17:54.270Z,56.18
2019-05-23T12:21:00.840Z,53.80
2019-05-23T12:24:07.504Z,53.69
2019-05-23T12:27:14.608Z,52.27
2019-05-23T12:30:22.541Z,52.84
2019-05-23T12:33:29.270Z,55.67
2019-05-23T12:36:36.515Z,55.36
2019-05-23T12:39:45.840Z,54.43
2019-05-23T12:42:52.342Z,52.04
2019-05-23T12:45:58.846Z,52.98
2019-05-23T12:49:24.431Z,55.04
2019-05-23T12:52:32.618Z,53.49
2019-05-23T12:55:40.897Z,58.04
2019-05-23T12:58:47.404Z,53.98
2019-05-23T13:01:55.653Z,54.78
2019-05-23T13:06:20.351Z,54.89
2019-05-23T13:09:29.058Z,57.05
2019-05-23T13:12:35.916Z,56.33
2019-05-23T13:15:43.638Z,55.05
2019-05-23T13:18:50.420Z,55.66
2019-05-23T13:21:56.944Z,57.01
2019-05-23T13:25:03.606Z,56.66
2019-05-23T13:28:10.075Z,58.15
2019-05-23T13:31:16.772Z,56.82
2019-05-23T13:34:23.401Z,56.05
2019-05-23T13:37:30.215Z,54.41
2019-05-23T13:40:36.727Z,54.61
2019-05-23T13:43:46.585Z,55.98
2019-05-23T13:46:53.378Z,55.23
2019-05-23T13:50:01.482Z,54.94
2019-05-23T13:53:09.493Z,54.71
2019-05-23T13:56:16.785Z,53.25
2019-05-23T13:59:23.531Z,53.30
2019-05-23T14:02:30.334Z,54.34
2019-05-23T14:05:37.009Z,52.48
2019-05-23T14:08:46.786Z,55.03
2019-05-23T14:12:19.487Z,57.13
2019-05-23T14:15:02.203Z,57.63
2019-05-23T14:18:15.129Z,55.17
2019-05-23T14:21:24.911Z,56.06
2019-05-23T14:24:31.541Z,56.15
2019-05-23T14:27:43.697Z,55.50
2019-05-23T14:31:16.019Z,56.66
2019-05-23T14:34:23.083Z,57.88
2019-05-23T14:37:35.100Z,56.15
2019-05-23T14:40:46.585Z,55.14
2019-05-23T14:43:54.206Z,54.13
2019-05-23T14:47:37.962Z,53.71
2019-05-23T14:50:58.301Z,54.48
2019-05-23T14:54:08.572Z,54.48
2019-05-23T14:57:15.243Z,56.90
2019-05-23T15:00:22.912Z,56.00
2019-05-23T15:03:29.554Z,56.50
2019-05-23T15:06:36.364Z,55.31
2019-05-23T15:09:44.959Z,55.34
2019-05-23T15:12:51.555Z,54.13
2019-05-23T15:15:58.195Z,56.63
2019-05-23T15:19:05.320Z,56.29
2019-05-23T15:22:13.016Z,55.23
2019-05-23T15:25:22.788Z,56.77
2019-05-23T15:28:29.421Z,57.11
2019-05-23T15:31:36.986Z,55.50
2019-05-23T15:34:44.395Z,56.54
2019-05-23T15:37:51.027Z,55.56
2019-05-23T15:40:57.592Z,55.23
2019-05-23T15:44:22.813Z,54.26
2019-05-23T15:47:15.413Z,53.72
2019-05-23T15:50:25.265Z,54.96
2019-05-23T15:53:49.692Z,54.84
2019-05-23T15:57:21.971Z,56.23
2019-05-23T16:00:46.592Z,55.03
2019-05-23T16:03:57.128Z,54.16
2019-05-23T16:07:03.963Z,53.60
2019-05-23T16:10:13.960Z,55.84
2019-05-23T16:13:23.453Z,55.29
2019-05-23T16:16:31.128Z,55.09
2019-05-23T16:19:44.284Z,55.50
2019-05-23T16:22:53.237Z,55.01
2019-05-23T16:26:01.466Z,54.27
2019-05-23T16:29:09.754Z,53.99
2019-05-23T16:32:18.595Z,55.01
2019-05-23T16:35:25.744Z,57.78
2019-05-23T16:38:37.532Z,57.08
2019-05-23T16:41:44.093Z,57.55
2019-05-23T16:44:51.028Z,56.93
2019-05-23T16:47:57.526Z,54.32
2019-05-23T16:51:04.571Z,55.18
2019-05-23T16:54:11.639Z,57.34
2019-05-23T16:57:30.284Z,57.96
2019-05-23T17:01:02.139Z,58.67
2019-05-23T17:04:20.344Z,58.61
2019-05-23T17:07:45.124Z,56.80
2019-05-23T17:10:56.936Z,56.05
2019-05-23T17:14:12.191Z,58.15
2019-05-23T17:17:49.020Z,57.73
2019-05-23T17:20:48.545Z,59.17
2019-05-23T17:24:03.426Z,59.00
2019-05-23T17:27:35.462Z,59.01
2019-05-23T17:30:46.526Z,57.47
2019-05-23T17:33:53.199Z,56.55
2019-05-23T17:36:59.922Z,57.81
2019-05-23T17:40:23.241Z,61.05
2019-05-23T17:43:16.545Z,60.74
2019-05-23T17:46:23.202Z,61.45
2019-05-23T17:49:32.316Z,63.58
2019-05-23T17:52:40.659Z,60.77
2019-05-23T17:55:48.586Z,63.45
2019-05-23T17:58:55.146Z,64.06
2019-05-23T18:02:01.682Z,64.94
2019-05-23T18:05:09.793Z,65.96
2019-05-23T18:08:19.023Z,67.82
2019-05-23T18:11:28.535Z,68.74
2019-05-23T18:14:36.293Z,68.67
2019-05-23T18:17:42.831Z,65.20
2019-05-23T18:20:49.318Z,64.30
2019-05-23T18:23:56.142Z,64.58
2019-05-23T18:27:02.841Z,65.90
2019-05-23T18:30:15.486Z,69.27
2019-05-23T18:33:24.102Z,70.66
2019-05-23T18:36:32.280Z,69.84
2019-05-23T18:39:41.205Z,72.43
2019-05-23T18:42:48.160Z,74.33
2019-05-23T18:45:57.794Z,75.42
2019-05-23T18:49:05.921Z,75.90
2019-05-23T18:52:12.452Z,78.15
2019-05-23T18:55:19.106Z,77.41
2019-05-23T18:58:26.047Z,77.20
2019-05-23T19:01:32.805Z,77.70
2019-05-23T19:04:39.494Z,78.27
2019-05-23T19:07:46.781Z,79.70
2019-05-23T19:10:53.666Z,78.58
2019-05-23T19:14:00.278Z,79.29
2019-05-23T19:17:07.708Z,80.96
2019-05-23T19:20:14.386Z,80.79
2019-05-23T19:23:21.320Z,81.02
2019-05-23T19:26:28.179Z,80.71
2019-05-23T19:29:38.951Z,81.07
2019-05-23T19:32:47.995Z,80.83
2019-05-23T19:35:55.137Z,81.41
2019-05-23T19:39:01.692Z,81.80
2019-05-23T19:42:09.864Z,82.57
2019-05-23T19:45:16.645Z,82.49
2019-05-23T19:48:23.356Z,82.50
2019-05-23T19:51:30.424Z,84.92
2019-05-23T19:54:37.203Z,82.96
2019-05-23T19:57:44.039Z,82.18
2019-05-23T20:00:50.997Z,83.78
2019-05-23T20:03:57.706Z,84.83
2019-05-23T20:07:06.833Z,84.55
2019-05-23T20:10:14.325Z,86.15
2019-05-23T20:13:20.966Z,86.58
2019-05-23T20:16:27.506Z,85.47
2019-05-23T20:19:34.727Z,86.42
2019-05-23T20:22:41.494Z,87.19
2019-05-23T20:25:48.172Z,87.02
2019-05-23T20:28:58.051Z,86.90
2019-05-23T20:32:05.601Z,87.17
2019-05-23T20:35:12.258Z,87.10
2019-05-23T20:38:19.309Z,87.07
2019-05-23T20:41:26.155Z,89.42
2019-05-23T20:44:32.872Z,88.48
2019-05-23T20:47:41.271Z,87.23
2019-05-23T20:50:48.092Z,87.47
2019-05-23T20:53:54.848Z,86.48
2019-05-23T20:57:01.412Z,88.11
2019-05-23T21:00:10.387Z,90.82
2019-05-23T21:03:17.006Z,91.49
2019-05-23T21:06:26.121Z,88.86
2019-05-23T21:09:35.571Z,90.22
2019-05-23T21:12:42.185Z,89.42
2019-05-23T21:15:48.984Z,88.89
2019-05-23T21:18:55.427Z,89.18
2019-05-23T21:22:02.225Z,88.05
2019-05-23T21:25:08.940Z,89.92
2019-05-23T21:28:15.505Z,88.06
2019-05-23T21:31:23.350Z,89.36
2019-05-23T21:34:30.135Z,89.79
2019-05-23T21:37:37.090Z,87.71
2019-05-23T21:40:47.753Z,89.57
2019-05-23T21:43:55.496Z,89.69
2019-05-23T21:47:01.964Z,91.37
2019-05-23T21:50:08.611Z,91.87
2019-05-23T21:53:15.325Z,90.32
2019-05-23T21:56:21.840Z,91.07
2019-05-23T21:59:28.266Z,90.24
2019-05-23T22:02:37.084Z,90.72
2019-05-23T22:05:43.514Z,91.75
2019-05-23T22:08:50.480Z,90.30
2019-05-23T22:11:56.926Z,91.72
2019-05-23T22:15:04.407Z,90.89
2019-05-23T22:18:11.071Z,89.96
2019-05-23T22:21:17.648Z,90.44
2019-05-23T22:24:24.193Z,90.54
2019-05-23T22:27:31.897Z,90.02
2019-05-23T22:30:38.428Z,89.65
2019-05-23T22:33:48.858Z,90.05
2019-05-23T22:36:55.943Z,89.25
2019-05-23T22:40:06.451Z,89.71
2019-05-23T22:43:21.133Z,89.43
2019-05-23T22:46:23.534Z,88.62
2019-05-23T22:49:30.128Z,90.01
2019-05-23T22:52:38.360Z,91.12
2019-05-23T22:55:44.849Z,90.49
2019-05-23T22:58:51.414Z,89.82
2019-05-23T23:01:58.024Z,90.69
2019-05-23T23:05:04.886Z,89.94
2019-05-23T23:08:12.572Z,89.88
2019-05-23T23:11:19.312Z,90.14
2019-05-23T23:14:25.854Z,90.87
2019-05-23T23:17:32.786Z,91.10
2019-05-23T23:20:41.356Z,89.90
2019-05-23T23:23:48.087Z,90.80
2019-05-23T23:26:54.931Z,89.20
2019-05-23T23:30:03.240Z,88.66
2019-05-23T23:33:09.731Z,90.60
2019-05-23T23:36:16.196Z,89.55
2019-05-23T23:39:26.028Z,89.41
2019-05-23T23:42:32.614Z,88.77
2019-05-23T23:45:58.899Z,87.68
2019-05-23T23:49:23.205Z,89.24
2019-05-23T23:52:47.881Z,90.32
2019-05-23T23:56:14.248Z,89.41
2019-05-23T23:59:19.861Z,88.37
